Time;durP1;ratioP1;P1;durP2;ratioP2;P2;SDS_P1;SDS_P2;PMS_P1;PMS_P2;Temp;Humidity;BMP_temperature;BMP_pressure;BME280_temperature;BME280_humidity;BME280_pressure;Samples;Min_cycle;Max_cycle;Signal;HPM_P1;HPM_P2
2022/10/22 00:02:19;;;;;;;13.55;6.60;;;18.80;99.90;;;;;;5054242;28;20044;-66
2022/10/22 00:05:23;;;;;;;13.20;6.40;;;18.90;99.90;;;;;;5053492;28;20044;-66
2022/10/22 00:08:27;;;;;;;13.13;6.20;;;18.70;99.90;;;;;;5053463;28;20047;-66
2022/10/22 00:11:31;;;;;;;9.48;6.05;;;18.70;99.90;;;;;;5053859;28;20055;-66
2022/10/22 00:14:36;;;;;;;10.05;6.25;;;18.70;99.90;;;;;;5053362;28;20040;-66
2022/10/22 00:17:40;;;;;;;11.38;6.47;;;18.70;99.90;;;;;;5053590;28;20044;-66
2022/10/22 00:20:44;;;;;;;8.98;5.82;;;18.60;99.90;;;;;;5052871;28;20526;-65
2022/10/22 00:23:48;;;;;;;11.57;6.93;;;18.50;99.90;;;;;;5053643;28;20047;-66
2022/10/22 00:26:52;;;;;;;14.95;7.72;;;18.30;99.90;;;;;;5053601;28;20051;-66
2022/10/22 00:29:55;;;;;;;12.40;7.00;;;18.20;99.90;;;;;;5053645;28;20048;-66
2022/10/22 00:32:59;;;;;;;13.05;7.85;;;18.20;99.90;;;;;;5053503;28;20048;-66
2022/10/22 00:36:03;;;;;;;19.67;8.48;;;18.00;99.90;;;;;;5053359;28;20048;-66
2022/10/22 00:39:08;;;;;;;17.52;7.55;;;17.60;99.90;;;;;;5053366;28;20052;-65
2022/10/22 00:42:20;;;;;;;17.02;8.77;;;17.40;99.90;;;;;;5053390;28;20055;-65
2022/10/22 00:45:26;;;;;;;11.68;8.00;;;17.20;99.90;;;;;;5053220;28;20044;-66
2022/10/22 00:48:32;;;;;;;12.50;8.27;;;17.20;99.90;;;;;;5053391;28;20056;-66
2022/10/22 00:51:36;;;;;;;13.25;9.70;;;17.20;99.90;;;;;;5053225;28;20128;-65
2022/10/22 00:54:41;;;;;;;15.07;8.30;;;17.00;99.90;;;;;;5052999;28;20043;-66
2022/10/22 00:57:46;;;;;;;15.32;8.23;;;16.90;99.90;;;;;;5052884;28;20036;-66
2022/10/22 01:00:50;;;;;;;14.90;8.70;;;17.00;99.90;;;;;;5053189;28;20490;-66
2022/10/22 01:03:54;;;;;;;12.80;8.88;;;16.90;99.90;;;;;;5052789;28;20052;-66
2022/10/22 01:06:58;;;;;;;17.05;8.73;;;17.00;99.90;;;;;;5052969;28;20060;-65
2022/10/22 01:10:26;;;;;;;14.88;8.50;;;16.90;99.90;;;;;;5052731;28;20056;-66
2022/10/22 01:13:40;;;;;;;15.20;8.98;;;17.00;99.90;;;;;;5052663;28;20047;-66
2022/10/22 01:17:08;;;;;;;18.40;9.93;;;16.80;99.90;;;;;;5052710;28;20052;-66
2022/10/22 01:20:34;;;;;;;31.52;10.98;;;16.80;99.90;;;;;;5052654;28;20039;-65
2022/10/22 01:23:57;;;;;;;14.85;9.20;;;16.90;99.90;;;;;;5052570;28;20044;-66
2022/10/22 01:27:20;;;;;;;13.05;8.00;;;17.00;99.90;;;;;;5052486;28;20038;-66
2022/10/22 01:30:24;;;;;;;;;;;17.00;99.90;;;;;;5052815;28;20056;-66
2022/10/22 01:33:29;;;;;;;14.55;9.43;;;17.00;99.90;;;;;;5051965;28;19920;-66
2022/10/22 01:36:34;;;;;;;11.55;8.23;;;17.10;99.90;;;;;;5052425;28;20059;-65
2022/10/22 01:39:41;;;;;;;16.15;8.70;;;17.10;99.90;;;;;;5052105;28;20036;-65
2022/10/22 01:43:00;;;;;;;12.43;8.63;;;17.20;99.90;;;;;;5052285;28;20386;-66
2022/10/22 01:46:05;;;;;;;10.95;8.30;;;17.20;99.90;;;;;;5051884;28;20044;-66
2022/10/22 01:49:11;;;;;;;11.95;8.18;;;17.30;99.90;;;;;;5052190;28;20056;-66
2022/10/22 01:52:48;;;;;;;13.93;7.78;;;17.40;99.90;;;;;;5051991;28;20056;-66
2022/10/22 01:56:29;;;;;;;13.07;7.57;;;17.50;99.90;;;;;;5036416;28;20056;-66
2022/10/22 01:59:52;;;;;;;18.20;8.55;;;17.60;99.90;;;;;;5052347;28;20487;-66
2022/10/22 02:03:04;;;;;;;10.63;7.38;;;17.70;99.90;;;;;;5051917;28;20040;-66
2022/10/22 02:06:16;;;;;;;12.73;7.65;;;17.70;99.90;;;;;;5051702;28;20048;-65
2022/10/22 02:09:21;;;;;;;10.85;6.63;;;17.90;99.90;;;;;;5051881;28;20047;-66
2022/10/22 02:12:28;;;;;;;12.13;6.88;;;17.90;99.90;;;;;;5051502;28;20435;-65
2022/10/22 02:15:34;;;;;;;12.20;6.93;;;17.90;99.90;;;;;;5051239;28;20048;-65
2022/10/22 02:18:41;;;;;;;8.23;6.03;;;18.00;99.90;;;;;;5051614;28;20043;-65
2022/10/22 02:21:45;;;;;;;10.63;6.18;;;18.00;99.90;;;;;;5051662;28;20420;-64
2022/10/22 02:24:49;;;;;;;11.88;6.25;;;18.20;99.90;;;;;;5051837;28;20048;-65
2022/10/22 02:28:35;;;;;;;12.15;5.97;;;18.50;99.90;;;;;;5051228;28;20063;-64
2022/10/22 02:31:43;;;;;;;17.13;6.03;;;18.50;99.90;;;;;;5051305;28;20100;-64
2022/10/22 02:34:49;;;;;;;13.63;6.78;;;18.60;99.90;;;;;;5050969;28;20043;-65
2022/10/22 02:37:56;;;;;;;11.40;5.22;;;18.60;99.90;;;;;;5051439;28;20044;-64
2022/10/22 02:41:00;;;;;;;13.70;5.50;;;18.70;99.90;;;;;;5050974;28;20496;-65
2022/10/22 02:44:08;;;;;;;10.43;5.47;;;18.70;99.90;;;;;;5051229;28;20048;-66
2022/10/22 02:47:12;;;;;;;14.77;5.85;;;18.80;99.90;;;;;;5051693;28;20377;-64
2022/10/22 02:50:16;;;;;;;10.80;6.00;;;18.80;99.90;;;;;;5051190;28;20531;-65
2022/10/22 02:53:20;;;;;;;13.43;6.05;;;18.80;99.90;;;;;;5051169;28;20051;-65
2022/10/22 02:56:25;;;;;;;13.80;5.50;;;18.80;99.90;;;;;;5050972;28;20052;-65
2022/10/22 02:59:29;;;;;;;9.70;5.78;;;18.80;99.90;;;;;;5051164;28;20036;-64
2022/10/22 03:02:33;;;;;;;13.45;5.57;;;18.80;99.90;;;;;;5050747;28;20040;-65
2022/10/22 03:05:37;;;;;;;14.45;5.72;;;18.90;99.90;;;;;;5051032;28;20146;-65
2022/10/22 03:08:41;;;;;;;12.35;6.40;;;18.70;99.90;;;;;;5050918;28;20052;-65
2022/10/22 03:11:45;;;;;;;17.83;5.90;;;18.70;99.90;;;;;;5051222;28;20047;-65
2022/10/22 03:14:49;;;;;;;13.10;5.68;;;18.70;99.90;;;;;;5051089;28;20052;-65
2022/10/22 03:17:53;;;;;;;9.65;5.60;;;18.80;99.90;;;;;;5050495;28;20039;-64
2022/10/22 03:21:20;;;;;;;13.55;5.75;;;18.80;99.90;;;;;;5051357;28;20048;-64
2022/10/22 03:24:38;;;;;;;11.02;5.25;;;18.80;99.90;;;;;;5050683;28;20044;-65
2022/10/22 03:27:43;;;;;;;14.45;6.57;;;18.80;99.90;;;;;;5050836;28;20043;-65
2022/10/22 03:30:47;;;;;;;9.32;6.20;;;18.80;99.90;;;;;;5051009;28;20036;-65
2022/10/22 03:33:51;;;;;;;13.75;6.07;;;18.70;99.90;;;;;;5050700;28;20396;-65
2022/10/22 03:36:59;;;;;;;15.30;6.13;;;18.70;99.90;;;;;;5054476;28;20047;-65
2022/10/22 03:40:06;;;;;;;11.43;5.38;;;18.80;99.90;;;;;;5054233;28;20052;-65
2022/10/22 03:43:10;;;;;;;9.70;5.45;;;18.80;99.90;;;;;;5054400;28;20051;-66
2022/10/22 03:46:14;;;;;;;8.50;5.35;;;18.80;99.90;;;;;;5053969;28;20388;-65
2022/10/22 03:49:18;;;;;;;9.63;6.00;;;18.60;99.90;;;;;;5053974;28;20044;-65
2022/10/22 03:52:23;;;;;;;14.73;6.63;;;18.70;99.90;;;;;;5054271;28;20052;-65
2022/10/22 03:55:27;;;;;;;11.23;6.30;;;18.70;99.90;;;;;;5053859;28;20044;-65
2022/10/22 03:58:31;;;;;;;14.00;6.10;;;18.70;99.90;;;;;;5054429;28;20056;-65
2022/10/22 04:01:35;;;;;;;12.73;6.60;;;18.70;99.90;;;;;;5054258;28;20570;-64
2022/10/22 04:04:39;;;;;;;9.45;6.53;;;18.70;99.90;;;;;;5053580;28;20400;-65
2022/10/22 04:07:42;;;;;;;11.90;6.78;;;18.60;99.90;;;;;;5052940;28;20044;-65
2022/10/22 04:10:51;;;;;;;10.15;6.20;;;18.60;99.90;;;;;;5053970;28;20044;-65
2022/10/22 04:13:55;;;;;;;14.88;7.13;;;18.50;99.90;;;;;;5053297;28;20502;-65
2022/10/22 04:16:59;;;;;;;12.52;6.00;;;18.40;99.90;;;;;;5053500;28;20337;-65
2022/10/22 04:20:04;;;;;;;13.77;5.70;;;18.60;99.90;;;;;;5053750;28;20040;-65
2022/10/22 04:23:08;;;;;;;11.10;6.10;;;18.70;99.90;;;;;;5053534;28;20055;-64
2022/10/22 04:26:12;;;;;;;15.02;5.85;;;18.80;99.90;;;;;;5053352;28;20048;-64
2022/10/22 04:29:16;;;;;;;17.13;7.10;;;18.80;99.90;;;;;;5053615;28;20607;-64
2022/10/22 04:32:20;;;;;;;17.48;6.25;;;18.90;99.90;;;;;;5053493;28;20063;-64
2022/10/22 04:35:23;;;;;;;18.27;5.63;;;18.90;99.90;;;;;;5053064;28;20111;-67
2022/10/22 04:38:27;;;;;;;15.10;5.57;;;18.90;99.90;;;;;;5053002;28;20410;-65
2022/10/22 04:41:34;;;;;;;13.35;5.43;;;19.00;99.90;;;;;;5053707;28;20044;-65
2022/10/22 04:44:38;;;;;;;13.63;6.20;;;19.10;99.90;;;;;;5053185;28;20064;-65
2022/10/22 04:47:41;;;;;;;18.15;5.88;;;19.00;99.90;;;;;;5052317;28;20047;-65
2022/10/22 04:50:45;;;;;;;16.20;6.25;;;19.10;99.90;;;;;;5053383;28;20052;-65
2022/10/22 04:53:50;;;;;;;10.88;5.25;;;19.10;99.90;;;;;;5052925;28;20048;-65
2022/10/22 04:56:54;;;;;;;13.48;5.53;;;19.00;99.90;;;;;;5054173;28;20044;-65
2022/10/22 04:59:57;;;;;;;14.88;5.15;;;19.00;99.90;;;;;;5053184;28;20036;-65
2022/10/22 05:03:01;;;;;;;13.15;5.47;;;19.00;99.90;;;;;;5052815;28;20048;-64
2022/10/22 05:06:07;;;;;;;16.42;5.60;;;19.00;99.90;;;;;;5053050;28;20392;-65
2022/10/22 05:09:14;;;;;;;15.98;5.72;;;19.00;99.90;;;;;;5052378;28;20043;-64
2022/10/22 05:12:18;;;;;;;12.55;5.97;;;19.00;99.90;;;;;;5052969;28;20064;-65
2022/10/22 05:15:21;;;;;;;16.08;5.35;;;19.00;99.90;;;;;;5052348;28;20040;-65
2022/10/22 05:18:25;;;;;;;14.00;6.07;;;19.00;99.90;;;;;;5052635;28;20400;-64
2022/10/22 05:21:30;;;;;;;17.77;6.35;;;19.00;99.90;;;;;;5052489;28;20056;-66
2022/10/22 05:24:36;;;;;;;13.05;6.22;;;19.00;99.90;;;;;;5052176;28;20040;-65
2022/10/22 05:27:39;;;;;;;17.90;5.65;;;19.00;99.90;;;;;;5052414;28;20491;-65
2022/10/22 05:30:52;;;;;;;15.55;6.15;;;19.00;99.90;;;;;;5052581;28;20044;-64
2022/10/22 05:33:56;;;;;;;14.68;5.57;;;19.00;99.90;;;;;;5052476;28;20111;-66
2022/10/22 05:37:01;;;;;;;13.82;5.40;;;19.00;99.90;;;;;;5052258;28;20044;-64
2022/10/22 05:40:05;;;;;;;19.45;5.60;;;19.00;99.90;;;;;;5052304;28;20056;-65
2022/10/22 05:43:10;;;;;;;18.80;6.05;;;19.00;99.90;;;;;;5052160;28;20498;-64
2022/10/22 05:46:17;;;;;;;15.45;6.32;;;19.10;99.90;;;;;;5051835;28;20051;-64
2022/10/22 05:49:21;;;;;;;17.70;5.95;;;19.00;99.90;;;;;;5052016;28;20060;-65
2022/10/22 05:52:25;;;;;;;18.45;6.35;;;19.10;99.90;;;;;;5051999;28;20044;-65
2022/10/22 05:55:30;;;;;;;13.10;5.60;;;19.10;99.90;;;;;;5051314;28;20063;-65
2022/10/22 05:58:35;;;;;;;17.70;6.05;;;19.10;99.90;;;;;;5051292;28;20044;-65
2022/10/22 06:01:40;;;;;;;17.13;7.00;;;19.10;99.90;;;;;;5051706;28;20388;-65
2022/10/22 06:04:44;;;;;;;16.13;6.28;;;19.10;99.90;;;;;;5051698;28;20491;-64
2022/10/22 06:07:48;;;;;;;19.63;7.00;;;19.10;99.90;;;;;;5051450;28;20044;-65
2022/10/22 06:10:52;;;;;;;16.08;5.78;;;19.10;99.90;;;;;;5051595;28;20047;-64
2022/10/22 06:13:56;;;;;;;19.25;7.18;;;19.20;99.90;;;;;;5051046;28;20044;-63
2022/10/22 06:17:00;;;;;;;17.42;6.53;;;19.30;99.90;;;;;;5051730;28;20048;-65
2022/10/22 06:20:05;;;;;;;16.30;6.55;;;19.30;99.90;;;;;;5051376;28;20051;-65
2022/10/22 06:23:09;;;;;;;20.33;6.30;;;19.30;99.90;;;;;;5051401;28;20043;-65
2022/10/22 06:26:14;;;;;;;22.85;6.07;;;19.30;99.90;;;;;;5051273;28;20043;-65
2022/10/22 06:29:18;;;;;;;23.20;7.68;;;19.40;99.90;;;;;;5051641;28;20072;-65
2022/10/22 06:32:22;;;;;;;12.45;6.05;;;19.40;99.90;;;;;;5051509;28;20063;-66
2022/10/22 06:35:26;;;;;;;16.58;6.43;;;19.50;99.90;;;;;;5050745;28;20048;-64
2022/10/22 06:38:30;;;;;;;22.08;6.82;;;19.50;99.90;;;;;;5051209;28;20395;-64
2022/10/22 06:41:33;;;;;;;21.17;6.68;;;19.60;99.90;;;;;;5050589;28;20044;-65
2022/10/22 06:44:37;;;;;;;15.88;5.95;;;19.60;99.90;;;;;;5050286;28;20108;-64
2022/10/22 06:47:41;;;;;;;19.95;7.18;;;19.50;99.90;;;;;;5050443;28;20044;-65
2022/10/22 06:50:45;;;;;;;25.85;6.80;;;19.50;99.90;;;;;;5050546;28;20108;-65
2022/10/22 06:53:50;;;;;;;18.13;6.78;;;19.60;99.90;;;;;;5050214;28;20044;-65
2022/10/22 06:56:53;;;;;;;15.00;6.00;;;19.60;99.90;;;;;;5050101;28;20052;-65
2022/10/22 06:59:57;;;;;;;14.25;6.65;;;19.60;99.90;;;;;;5050316;28;20048;-64
2022/10/22 07:03:01;;;;;;;15.15;6.35;;;19.60;99.90;;;;;;5050351;28;20047;-67
2022/10/22 07:06:08;;;;;;;22.33;6.35;;;19.70;99.90;;;;;;5050181;28;20120;-65
2022/10/22 07:09:12;;;;;;;17.20;6.72;;;19.90;99.90;;;;;;5050295;28;20040;-64
2022/10/22 07:12:16;;;;;;;24.92;6.38;;;19.80;99.90;;;;;;5053389;28;20522;-65
2022/10/22 07:15:20;;;;;;;22.10;7.00;;;20.00;99.90;;;;;;5053441;28;20046;-64
2022/10/22 07:18:24;;;;;;;17.30;6.15;;;20.50;99.90;;;;;;5053228;28;20063;-65
2022/10/22 07:21:29;;;;;;;16.42;6.55;;;21.00;99.90;;;;;;5052785;28;20047;-64
2022/10/22 07:24:34;;;;;;;13.52;5.38;;;21.10;99.90;;;;;;5040649;28;20048;-65
2022/10/22 07:27:38;;;;;;;15.85;6.72;;;21.10;99.90;;;;;;5053433;28;20044;-64
2022/10/22 07:30:43;;;;;;;21.65;6.30;;;20.70;99.90;;;;;;5053292;28;20040;-64
2022/10/22 07:33:48;;;;;;;15.32;6.75;;;20.50;99.90;;;;;;5053412;28;20036;-64
2022/10/22 07:36:52;;;;;;;20.02;6.47;;;20.40;99.90;;;;;;5053022;28;20059;-65
2022/10/22 07:39:56;;;;;;;14.85;5.82;;;20.40;99.90;;;;;;5030506;28;207555;-65
2022/10/22 07:43:00;;;;;;;20.15;6.50;;;20.20;99.90;;;;;;5054743;28;20040;-64
2022/10/22 07:46:05;;;;;;;20.35;6.50;;;20.20;99.90;;;;;;5054020;28;20044;-65
2022/10/22 07:49:09;;;;;;;23.30;6.05;;;20.20;99.90;;;;;;5041937;28;20056;-65
2022/10/22 07:52:13;;;;;;;18.15;7.47;;;20.30;99.90;;;;;;5054127;28;20052;-65
2022/10/22 07:55:17;;;;;;;21.02;7.13;;;20.20;99.90;;;;;;5054037;28;20048;-66
2022/10/22 07:58:22;;;;;;;21.38;7.07;;;19.90;99.90;;;;;;5053964;28;20498;-65
2022/10/22 08:01:25;;;;;;;13.68;6.55;;;19.90;99.90;;;;;;5054108;28;20048;-65
2022/10/22 08:04:29;;;;;;;18.60;6.45;;;20.00;99.90;;;;;;5053331;28;20507;-65
2022/10/22 08:07:33;;;;;;;14.40;7.38;;;19.90;99.90;;;;;;5052876;28;20392;-64
2022/10/22 08:10:38;;;;;;;18.15;7.88;;;19.90;99.90;;;;;;5053555;28;20542;-65
2022/10/22 08:13:42;;;;;;;24.95;6.68;;;19.90;99.90;;;;;;5053541;28;20040;-65
2022/10/22 08:16:46;;;;;;;18.30;6.63;;;19.90;99.90;;;;;;5053289;28;20048;-64
2022/10/22 08:19:50;;;;;;;21.50;7.00;;;20.00;99.90;;;;;;5053523;28;20048;-66
2022/10/22 08:22:54;;;;;;;16.40;6.95;;;19.40;99.90;;;;;;5053828;28;20060;-64
2022/10/22 08:25:58;;;;;;;16.70;6.25;;;20.20;99.90;;;;;;5053630;28;20044;-64
2022/10/22 08:29:03;;;;;;;17.63;6.55;;;20.20;99.90;;;;;;5053253;28;20040;-65
2022/10/22 08:32:06;;;;;;;23.15;7.18;;;20.20;99.90;;;;;;5053594;28;20043;-64
2022/10/22 08:35:10;;;;;;;22.80;6.85;;;20.20;99.90;;;;;;5053138;28;20040;-64
2022/10/22 08:38:15;;;;;;;17.10;6.40;;;20.30;99.90;;;;;;5053348;28;20048;-66
2022/10/22 08:41:21;;;;;;;14.30;6.25;;;20.40;99.90;;;;;;5052523;28;20499;-65
2022/10/22 08:44:46;;;;;;;25.77;6.97;;;20.50;99.90;;;;;;5053224;28;20060;-65
2022/10/22 08:48:17;;;;;;;17.48;6.72;;;20.70;99.90;;;;;;5053206;28;20036;-65
2022/10/22 08:51:29;;;;;;;23.50;6.28;;;20.60;99.90;;;;;;5045663;28;20052;-65
2022/10/22 08:54:39;;;;;;;;;;;20.60;99.90;;;;;;5053522;28;20044;-65
2022/10/22 08:58:05;;;;;;;17.35;7.07;;;20.50;99.90;;;;;;5053446;28;19919;-64
2022/10/22 09:01:13;;;;;;;23.27;7.47;;;20.60;99.90;;;;;;5052855;28;20044;-64
2022/10/22 09:04:27;;;;;;;24.02;6.57;;;20.70;99.90;;;;;;5052612;28;20047;-63
2022/10/22 09:07:31;;;;;;;17.77;6.53;;;20.80;99.90;;;;;;5052899;28;20056;-64
2022/10/22 09:10:39;;;;;;;20.40;6.80;;;21.00;99.90;;;;;;5053126;28;20048;-64
2022/10/22 09:13:45;;;;;;;17.63;6.35;;;21.30;99.90;;;;;;5052747;28;20060;-65
2022/10/22 09:17:08;;;;;;;13.98;6.53;;;21.50;99.90;;;;;;5052395;28;20052;-64
2022/10/22 09:20:25;;;;;;;12.77;6.65;;;22.00;99.90;;;;;;5052570;28;20076;-63
2022/10/22 09:23:48;;;;;;;16.10;5.40;;;22.50;99.90;;;;;;5051863;28;20502;-65
2022/10/22 09:26:55;;;;;;;15.63;5.85;;;23.00;99.90;;;;;;5051991;28;20048;-66
2022/10/22 09:30:00;;;;;;;24.15;6.68;;;22.70;99.90;;;;;;5052150;28;20048;-64
2022/10/22 09:33:05;;;;;;;16.23;6.00;;;22.30;99.90;;;;;;5051611;28;20503;-65
2022/10/22 09:36:18;;;;;;;15.70;5.80;;;22.60;99.90;;;;;;5051894;28;20040;-65
2022/10/22 09:39:31;;;;;;;15.02;5.93;;;23.50;99.90;;;;;;5051993;28;20040;-65
2022/10/22 09:42:35;;;;;;;12.93;5.45;;;23.80;99.90;;;;;;5039744;28;20032;-64
2022/10/22 09:45:39;;;;;;;30.63;5.95;;;25.80;99.90;;;;;;5051829;28;20048;-64
2022/10/22 09:48:49;;;;;;;23.20;5.72;;;26.50;99.90;;;;;;5052068;28;20491;-65
2022/10/22 09:51:58;;;;;;;14.75;5.00;;;27.40;99.90;;;;;;5052100;28;20044;-64
2022/10/22 09:55:16;;;;;;;13.85;5.25;;;27.60;99.90;;;;;;5051597;28;20040;-65
2022/10/22 09:58:20;;;;;;;14.50;5.68;;;26.80;99.90;;;;;;5051767;28;20044;-65
2022/10/22 10:01:26;;;;;;;13.98;4.63;;;27.20;99.90;;;;;;5051725;28;20036;-65
2022/10/22 10:04:34;;;;;;;11.45;4.18;;;28.60;99.90;;;;;;5051453;28;20044;-65
2022/10/22 10:07:38;;;;;;;17.00;5.00;;;28.30;99.90;;;;;;5051779;28;20052;-65
2022/10/22 10:10:50;;;;;;;12.68;4.90;;;28.40;99.90;;;;;;5051687;28;20063;-65
2022/10/22 10:14:20;;;;;;;19.20;4.22;;;29.90;99.90;;;;;;5051303;28;20040;-65
2022/10/22 10:17:53;;;;;;;22.05;5.63;;;29.40;99.90;;;;;;5051613;28;20048;-64
2022/10/22 10:21:12;;;;;;;23.85;6.03;;;28.50;99.90;;;;;;5013307;28;20063;-64
2022/10/22 10:25:00;;;;;;;21.92;5.03;;;28.40;99.90;;;;;;5051377;28;20075;-64
2022/10/22 10:28:53;;;;;;;14.52;4.82;;;28.40;99.90;;;;;;5051281;28;20040;-65
2022/10/22 10:32:26;;;;;;;19.05;5.20;;;28.00;99.90;;;;;;5051830;28;20044;-64
2022/10/22 10:36:08;;;;;;;19.33;5.72;;;26.90;99.90;;;;;;5050871;28;20506;-65
2022/10/22 10:39:27;;;;;;;18.80;5.53;;;26.20;99.90;;;;;;5051129;28;20040;-65
2022/10/22 10:42:42;;;;;;;21.27;6.28;;;25.90;99.90;;;;;;5051288;28;20487;-64
2022/10/22 10:46:24;;;;;;;19.00;6.35;;;25.50;99.90;;;;;;5055400;28;20392;-65
2022/10/22 10:49:34;;;;;;;27.13;7.78;;;25.00;99.90;;;;;;4993893;28;20154;-64
2022/10/22 10:52:41;;;;;;;22.42;7.63;;;25.10;99.90;;;;;;4994941;28;20045;-65
2022/10/22 10:55:46;;;;;;;20.67;6.68;;;25.00;99.90;;;;;;5055276;28;20494;-65
2022/10/22 10:59:32;;;;;;;16.52;5.07;;;26.40;99.90;;;;;;5055306;28;20040;-65
2022/10/22 11:02:53;;;;;;;19.15;5.88;;;26.40;99.90;;;;;;5054953;28;20495;-64
2022/10/22 11:06:19;;;;;;;22.65;6.35;;;25.90;99.90;;;;;;5055234;28;20044;-65
2022/10/22 11:09:29;;;;;;;18.58;6.68;;;26.30;99.90;;;;;;5055218;28;20071;-65
2022/10/22 11:12:38;;;;;;;20.52;5.22;;;26.30;99.90;;;;;;5055154;28;20048;-66
2022/10/22 11:15:47;;;;;;;22.52;6.47;;;27.30;99.90;;;;;;5054834;28;20503;-64
2022/10/22 11:19:02;;;;;;;17.02;6.07;;;27.00;99.90;;;;;;5054955;28;20051;-66
2022/10/22 11:22:18;;;;;;;25.67;5.90;;;28.70;99.90;;;;;;5054612;28;20056;-65
2022/10/22 11:25:45;;;;;;;19.50;6.03;;;29.00;99.90;;;;;;5054706;28;20048;-65
2022/10/22 11:28:52;;;;;;;13.73;5.90;;;28.20;99.90;;;;;;5054781;28;20053;-65
2022/10/22 11:31:57;;;;;;;16.05;5.60;;;29.60;99.90;;;;;;5054779;28;20064;-65
2022/10/22 11:35:05;;;;;;;15.82;5.93;;;28.60;99.90;;;;;;5054172;28;20058;-65
2022/10/22 11:38:19;;;;;;;19.33;5.60;;;28.80;99.90;;;;;;5053356;28;20503;-65
2022/10/22 11:41:26;;;;;;;16.50;6.10;;;28.00;99.90;;;;;;5054103;28;20056;-65
2022/10/22 11:44:31;;;;;;;21.15;6.05;;;27.40;99.90;;;;;;5054320;28;20040;-66
2022/10/22 11:48:17;;;;;;;25.65;7.25;;;28.00;99.90;;;;;;5054336;28;20052;-65
2022/10/22 11:51:47;;;;;;;19.23;6.50;;;28.20;99.90;;;;;;5053097;28;20048;-66
2022/10/22 11:54:59;;;;;;;25.10;6.95;;;26.20;99.90;;;;;;5053540;28;20108;-66
2022/10/22 11:58:29;;;;;;;24.10;6.50;;;25.00;99.90;;;;;;5054148;28;20538;-65
2022/10/22 12:01:46;;;;;;;24.30;7.18;;;25.20;99.90;;;;;;5054111;28;20048;-65
2022/10/22 12:04:50;;;;;;;20.80;6.50;;;24.30;99.90;;;;;;5053917;28;20056;-65
2022/10/22 12:08:20;;;;;;;17.17;6.57;;;25.60;99.90;;;;;;5053981;28;20044;-65
2022/10/22 12:11:24;;;;;;;22.30;7.05;;;26.50;99.90;;;;;;5053882;28;20044;-65
2022/10/22 12:14:39;;;;;;;21.00;6.30;;;26.50;99.90;;;;;;5053488;28;20047;-65
2022/10/22 12:17:43;;;;;;;20.08;7.00;;;25.70;99.90;;;;;;5053650;28;20048;-63
2022/10/22 12:20:52;;;;;;;22.20;6.85;;;25.00;99.90;;;;;;5053720;28;20506;-65
2022/10/22 12:23:56;;;;;;;23.13;6.55;;;25.40;99.90;;;;;;5053237;28;20063;-65
2022/10/22 12:27:00;;;;;;;22.27;6.68;;;25.60;99.90;;;;;;5053433;28;20400;-65
2022/10/22 12:30:17;;;;;;;21.55;6.85;;;25.40;99.90;;;;;;5053631;28;20043;-64
2022/10/22 12:33:22;;;;;;;18.58;6.20;;;26.40;99.90;;;;;;5053529;28;20040;-64
2022/10/22 12:36:28;;;;;;;19.20;7.05;;;25.60;99.90;;;;;;5053471;28;20499;-65
2022/10/22 12:39:34;;;;;;;20.45;6.68;;;24.90;99.90;;;;;;5052933;28;20363;-65
2022/10/22 12:42:45;;;;;;;19.10;6.22;;;26.90;99.90;;;;;;5053383;28;20380;-66
2022/10/22 12:45:49;;;;;;;;;;;28.20;99.90;;;;;;5053717;28;20040;-66
2022/10/22 12:48:54;;;;;;;17.02;6.18;;;28.30;99.90;;;;;;5052954;28;19916;-65
2022/10/22 12:52:05;;;;;;;20.23;7.00;;;28.30;99.90;;;;;;5052958;28;20063;-65
2022/10/22 12:55:18;;;;;;;20.98;6.72;;;26.20;99.90;;;;;;5052964;28;20515;-64
2022/10/22 12:58:28;;;;;;;27.42;6.90;;;26.90;99.90;;;;;;5052770;28;20064;-66
2022/10/22 13:01:36;;;;;;;24.80;7.13;;;28.10;99.90;;;;;;5053052;28;20414;-65
2022/10/22 13:04:40;;;;;;;20.05;6.65;;;26.80;99.90;;;;;;5052656;28;20036;-65
2022/10/22 13:08:11;;;;;;;19.90;6.65;;;27.50;99.90;;;;;;5051912;28;20526;-64
2022/10/22 13:11:19;;;;;;;19.67;7.23;;;26.50;99.90;;;;;;5052973;28;20052;-65
2022/10/22 13:14:36;;;;;;;21.35;7.55;;;26.00;99.90;;;;;;5052183;28;20055;-65
2022/10/22 13:17:41;;;;;;;25.35;6.95;;;25.10;99.90;;;;;;5052408;28;20510;-65
2022/10/22 13:20:54;;;;;;;22.55;7.07;;;25.50;99.90;;;;;;5052349;28;20043;-64
2022/10/22 13:24:00;;;;;;;21.65;6.18;;;26.00;99.90;;;;;;5052635;28;20036;-65
2022/10/22 13:27:08;;;;;;;27.88;7.18;;;25.40;99.90;;;;;;5052407;28;20052;-66
2022/10/22 13:30:26;;;;;;;22.08;7.22;;;24.60;99.90;;;;;;5052349;28;20040;-65
2022/10/22 13:33:37;;;;;;;21.15;6.97;;;24.50;99.90;;;;;;5051995;28;20040;-65
2022/10/22 13:36:41;;;;;;;;;;;24.70;99.90;;;;;;5052698;28;20040;-65
2022/10/22 13:39:45;;;;;;;21.00;7.00;;;24.60;99.90;;;;;;5051897;28;20275;-65
2022/10/22 13:42:49;;;;;;;25.98;7.00;;;24.70;99.90;;;;;;5052249;28;20044;-66
2022/10/22 13:45:58;;;;;;;28.80;7.65;;;25.20;99.90;;;;;;5052068;28;20044;-64
2022/10/22 13:49:03;;;;;;;21.55;7.10;;;25.40;99.90;;;;;;5052082;28;20040;-65
2022/10/22 13:52:34;;;;;;;32.08;8.30;;;25.20;99.90;;;;;;5051837;28;20116;-64
2022/10/22 13:55:38;;;;;;;30.08;8.68;;;24.80;99.90;;;;;;5051928;28;20044;-65
2022/10/22 13:58:43;;;;;;;26.27;7.30;;;24.40;99.90;;;;;;5051783;28;20048;-65
2022/10/22 14:01:47;;;;;;;29.02;7.85;;;24.20;99.90;;;;;;5051818;28;20044;-64
2022/10/22 14:04:51;;;;;;;22.77;7.72;;;24.50;99.90;;;;;;5051504;28;20048;-65
2022/10/22 14:07:56;;;;;;;18.08;6.43;;;24.70;99.90;;;;;;5051914;28;20044;-64
2022/10/22 14:11:01;;;;;;;35.88;8.75;;;24.80;99.90;;;;;;5051457;28;20380;-65
2022/10/22 14:14:07;;;;;;;22.38;7.45;;;24.80;99.90;;;;;;5051615;28;20503;-63
2022/10/22 14:17:15;;;;;;;25.55;7.72;;;24.10;99.90;;;;;;5051489;28;20049;-65
2022/10/22 14:20:21;;;;;;;25.67;7.07;;;23.70;99.90;;;;;;5051649;28;20040;-64
2022/10/22 14:23:30;;;;;;;29.35;7.32;;;23.60;99.90;;;;;;5051322;28;20048;-65
2022/10/22 14:26:34;;;;;;;35.35;7.80;;;23.60;99.90;;;;;;5051311;28;20040;-64
2022/10/22 14:29:38;;;;;;;26.40;7.32;;;23.70;99.90;;;;;;5051249;28;20052;-64
2022/10/22 14:32:45;;;;;;;23.40;8.20;;;23.60;99.90;;;;;;5051776;28;20040;-64
2022/10/22 14:35:49;;;;;;;27.27;8.30;;;23.90;99.90;;;;;;5051251;28;20044;-65
2022/10/22 14:38:53;;;;;;;27.38;7.65;;;24.60;99.90;;;;;;5051024;28;20044;-64
2022/10/22 14:41:57;;;;;;;23.90;7.40;;;25.00;99.90;;;;;;5051084;28;20036;-65
2022/10/22 14:45:01;;;;;;;21.40;7.65;;;24.70;99.90;;;;;;5051110;28;20044;-64
2022/10/22 14:48:05;;;;;;;26.13;7.63;;;25.10;99.90;;;;;;5051216;28;20388;-66
2022/10/22 14:51:16;;;;;;;25.52;7.40;;;25.30;99.90;;;;;;5051002;28;20044;-65
2022/10/22 14:54:20;;;;;;;21.55;7.20;;;24.80;99.90;;;;;;5051402;28;20064;-65
2022/10/22 14:57:24;;;;;;;24.83;7.45;;;24.70;99.90;;;;;;5050628;28;20048;-65
2022/10/22 15:00:28;;;;;;;23.98;7.80;;;24.80;99.90;;;;;;5051112;28;20271;-66
2022/10/22 15:03:32;;;;;;;23.58;7.15;;;24.60;99.90;;;;;;5050689;28;20408;-65
2022/10/22 15:06:36;;;;;;;23.77;7.60;;;25.30;99.90;;;;;;5038822;28;20052;-66
2022/10/22 15:09:40;;;;;;;24.60;7.70;;;25.30;99.90;;;;;;5051030;28;20052;-66
2022/10/22 15:12:44;;;;;;;21.05;7.63;;;25.00;99.90;;;;;;5051138;28;20503;-65
2022/10/22 15:15:48;;;;;;;25.27;7.75;;;24.80;99.90;;;;;;5050647;28;20053;-66
2022/10/22 15:18:52;;;;;;;23.77;8.43;;;24.90;99.90;;;;;;5051073;28;20502;-65
2022/10/22 15:21:56;;;;;;;30.42;9.32;;;24.60;99.90;;;;;;5050566;28;20392;-65
2022/10/22 15:25:02;;;;;;;35.78;8.20;;;24.30;99.90;;;;;;5050511;28;20040;-65
2022/10/22 15:28:06;;;;;;;28.00;8.40;;;23.90;99.90;;;;;;5050795;28;20040;-66
2022/10/22 15:31:13;;;;;;;28.05;8.85;;;23.90;99.90;;;;;;5052726;28;20502;-65
2022/10/22 15:34:19;;;;;;;25.45;8.82;;;23.50;99.90;;;;;;5054311;28;20400;-65
2022/10/22 15:37:23;;;;;;;29.13;8.90;;;23.30;99.90;;;;;;5053968;28;20052;-65
2022/10/22 15:40:27;;;;;;;22.20;8.55;;;23.10;99.90;;;;;;5054148;28;20044;-66
2022/10/22 15:43:32;;;;;;;32.78;8.93;;;23.10;99.90;;;;;;5054389;28;20052;-65
2022/10/22 15:46:36;;;;;;;21.88;9.02;;;22.80;99.90;;;;;;5054177;28;20044;-65
2022/10/22 15:49:40;;;;;;;28.35;8.90;;;22.70;99.90;;;;;;5054464;28;20055;-64
2022/10/22 15:52:44;;;;;;;30.50;10.85;;;22.40;99.90;;;;;;5054498;28;20047;-64
2022/10/22 15:55:48;;;;;;;25.45;9.60;;;22.10;99.90;;;;;;5054197;28;20062;-65
2022/10/22 15:59:04;;;;;;;28.48;9.60;;;21.80;99.90;;;;;;5054094;28;20064;-64
2022/10/22 16:02:10;;;;;;;21.50;8.88;;;21.60;99.90;;;;;;5054438;28;20055;-65
2022/10/22 16:05:14;;;;;;;23.02;9.10;;;21.50;99.90;;;;;;5053984;28;20048;-64
2022/10/22 16:08:18;;;;;;;24.48;9.85;;;21.40;99.90;;;;;;5052863;28;20047;-65
2022/10/22 16:11:23;;;;;;;31.15;9.50;;;21.30;99.90;;;;;;5054051;28;20384;-65